sensor_id;sensor_type;location;lat;lon;timestamp;P1;durP1;ratioP1;P2;durP2;ratioP2
63189;SDS011;49286;44.460;26.114;2023-05-16T00:02:15;3.05;;;1.80;;
63189;SDS011;49286;44.460;26.114;2023-05-16T00:04:40;4.35;;;2.65;;
63189;SDS011;49286;44.460;26.114;2023-05-16T00:07:06;4.10;;;3.05;;
63189;SDS011;49286;44.460;26.114;2023-05-16T00:09:32;3.85;;;2.30;;
63189;SDS011;49286;44.460;26.114;2023-05-16T00:11:57;3.92;;;2.20;;
63189;SDS011;49286;44.460;26.114;2023-05-16T00:14:23;3.25;;;2.25;;
63189;SDS011;49286;44.460;26.114;2023-05-16T00:16:51;4.57;;;2.70;;
63189;SDS011;49286;44.460;26.114;2023-05-16T00:19:17;3.97;;;2.35;;
63189;SDS011;49286;44.460;26.114;2023-05-16T00:21:43;4.35;;;2.30;;
63189;SDS011;49286;44.460;26.114;2023-05-16T00:24:08;6.20;;;3.28;;
63189;SDS011;49286;44.460;26.114;2023-05-16T00:26:34;5.00;;;2.13;;
63189;SDS011;49286;44.460;26.114;2023-05-16T00:29:00;3.28;;;2.15;;
63189;SDS011;49286;44.460;26.114;2023-05-16T00:31:26;7.30;;;2.80;;
63189;SDS011;49286;44.460;26.114;2023-05-16T00:33:52;3.40;;;2.00;;
63189;SDS011;49286;44.460;26.114;2023-05-16T00:36:18;4.75;;;2.85;;
63189;SDS011;49286;44.460;26.114;2023-05-16T00:38:44;8.55;;;2.65;;
63189;SDS011;49286;44.460;26.114;2023-05-16T00:41:10;4.43;;;2.60;;
63189;SDS011;49286;44.460;26.114;2023-05-16T00:43:35;5.00;;;2.40;;
63189;SDS011;49286;44.460;26.114;2023-05-16T00:46:03;6.43;;;2.60;;
63189;SDS011;49286;44.460;26.114;2023-05-16T00:48:29;4.45;;;2.60;;
63189;SDS011;49286;44.460;26.114;2023-05-16T00:50:55;4.07;;;2.78;;
63189;SDS011;49286;44.460;26.114;2023-05-16T00:53:22;3.80;;;2.40;;
63189;SDS011;49286;44.460;26.114;2023-05-16T00:55:48;5.80;;;3.38;;
63189;SDS011;49286;44.460;26.114;2023-05-16T00:58:14;6.90;;;2.55;;
63189;SDS011;49286;44.460;26.114;2023-05-16T01:00:40;3.38;;;2.38;;
63189;SDS011;49286;44.460;26.114;2023-05-16T01:03:06;6.63;;;3.15;;
63189;SDS011;49286;44.460;26.114;2023-05-16T01:05:31;4.65;;;3.17;;
63189;SDS011;49286;44.460;26.114;2023-05-16T01:07:57;4.25;;;3.15;;
63189;SDS011;49286;44.460;26.114;2023-05-16T01:10:23;3.83;;;2.13;;
63189;SDS011;49286;44.460;26.114;2023-05-16T01:12:56;5.03;;;2.80;;
63189;SDS011;49286;44.460;26.114;2023-05-16T01:15:49;4.13;;;2.60;;
63189;SDS011;49286;44.460;26.114;2023-05-16T01:18:51;3.72;;;2.63;;
63189;SDS011;49286;44.460;26.114;2023-05-16T01:21:34;4.88;;;2.22;;
63189;SDS011;49286;44.460;26.114;2023-05-16T01:24:33;5.20;;;2.42;;
63189;SDS011;49286;44.460;26.114;2023-05-16T01:29:36;3.92;;;2.42;;
63189;SDS011;49286;44.460;26.114;2023-05-16T01:32:02;5.40;;;2.67;;
63189;SDS011;49286;44.460;26.114;2023-05-16T01:34:28;4.85;;;3.10;;
63189;SDS011;49286;44.460;26.114;2023-05-16T01:36:59;5.07;;;3.03;;
63189;SDS011;49286;44.460;26.114;2023-05-16T01:39:43;5.60;;;4.65;;
63189;SDS011;49286;44.460;26.114;2023-05-16T01:42:14;4.85;;;2.63;;
63189;SDS011;49286;44.460;26.114;2023-05-16T01:47:27;4.18;;;2.53;;
63189;SDS011;49286;44.460;26.114;2023-05-16T01:52:52;3.83;;;2.45;;
63189;SDS011;49286;44.460;26.114;2023-05-16T01:55:23;4.03;;;3.15;;
63189;SDS011;49286;44.460;26.114;2023-05-16T01:58:01;4.35;;;2.65;;
63189;SDS011;49286;44.460;26.114;2023-05-16T02:00:29;4.45;;;2.65;;
63189;SDS011;49286;44.460;26.114;2023-05-16T02:02:55;4.03;;;2.78;;
63189;SDS011;49286;44.460;26.114;2023-05-16T02:05:21;4.65;;;2.90;;
63189;SDS011;49286;44.460;26.114;2023-05-16T02:07:46;8.63;;;4.25;;
63189;SDS011;49286;44.460;26.114;2023-05-16T02:10:12;4.70;;;3.42;;
63189;SDS011;49286;44.460;26.114;2023-05-16T02:12:38;6.10;;;3.63;;
63189;SDS011;49286;44.460;26.114;2023-05-16T02:15:03;4.55;;;2.78;;
63189;SDS011;49286;44.460;26.114;2023-05-16T02:17:29;6.40;;;3.05;;
63189;SDS011;49286;44.460;26.114;2023-05-16T02:19:55;4.13;;;3.20;;
63189;SDS011;49286;44.460;26.114;2023-05-16T02:22:20;6.53;;;3.17;;
63189;SDS011;49286;44.460;26.114;2023-05-16T02:24:46;5.88;;;3.40;;
63189;SDS011;49286;44.460;26.114;2023-05-16T02:27:11;4.47;;;2.90;;
63189;SDS011;49286;44.460;26.114;2023-05-16T02:29:37;6.55;;;3.63;;
63189;SDS011;49286;44.460;26.114;2023-05-16T02:32:02;5.18;;;3.13;;
63189;SDS011;49286;44.460;26.114;2023-05-16T02:34:28;4.88;;;3.22;;
63189;SDS011;49286;44.460;26.114;2023-05-16T02:36:54;6.22;;;3.45;;
63189;SDS011;49286;44.460;26.114;2023-05-16T02:39:20;6.20;;;2.70;;
63189;SDS011;49286;44.460;26.114;2023-05-16T02:41:45;7.20;;;3.33;;
63189;SDS011;49286;44.460;26.114;2023-05-16T02:44:10;5.75;;;3.03;;
63189;SDS011;49286;44.460;26.114;2023-05-16T02:46:36;5.15;;;3.10;;
63189;SDS011;49286;44.460;26.114;2023-05-16T02:49:01;6.38;;;3.70;;
63189;SDS011;49286;44.460;26.114;2023-05-16T02:51:27;5.50;;;3.63;;
63189;SDS011;49286;44.460;26.114;2023-05-16T02:53:53;5.35;;;3.83;;
63189;SDS011;49286;44.460;26.114;2023-05-16T02:56:23;9.25;;;3.65;;
63189;SDS011;49286;44.460;26.114;2023-05-16T02:58:50;7.22;;;3.50;;
63189;SDS011;49286;44.460;26.114;2023-05-16T03:01:17;6.97;;;3.65;;
63189;SDS011;49286;44.460;26.114;2023-05-16T03:03:43;7.20;;;3.50;;
63189;SDS011;49286;44.460;26.114;2023-05-16T03:06:08;9.15;;;3.75;;
63189;SDS011;49286;44.460;26.114;2023-05-16T03:08:33;6.28;;;3.53;;
63189;SDS011;49286;44.460;26.114;2023-05-16T03:11:00;5.88;;;3.17;;
63189;SDS011;49286;44.460;26.114;2023-05-16T03:13:25;5.43;;;3.72;;
63189;SDS011;49286;44.460;26.114;2023-05-16T03:15:52;4.60;;;3.42;;
63189;SDS011;49286;44.460;26.114;2023-05-16T03:18:17;7.65;;;3.80;;
63189;SDS011;49286;44.460;26.114;2023-05-16T03:20:43;9.90;;;3.10;;
63189;SDS011;49286;44.460;26.114;2023-05-16T03:23:08;8.23;;;4.22;;
63189;SDS011;49286;44.460;26.114;2023-05-16T03:25:34;4.43;;;3.28;;
63189;SDS011;49286;44.460;26.114;2023-05-16T03:28:04;7.78;;;3.90;;
63189;SDS011;49286;44.460;26.114;2023-05-16T03:30:30;5.90;;;3.13;;
63189;SDS011;49286;44.460;26.114;2023-05-16T03:32:56;6.35;;;3.58;;
63189;SDS011;49286;44.460;26.114;2023-05-16T03:35:21;6.07;;;5.07;;
63189;SDS011;49286;44.460;26.114;2023-05-16T03:37:48;5.95;;;4.10;;
63189;SDS011;49286;44.460;26.114;2023-05-16T03:40:14;6.15;;;3.67;;
63189;SDS011;49286;44.460;26.114;2023-05-16T03:42:39;6.57;;;4.22;;
63189;SDS011;49286;44.460;26.114;2023-05-16T03:45:05;5.30;;;3.65;;
63189;SDS011;49286;44.460;26.114;2023-05-16T03:47:31;8.30;;;4.82;;
63189;SDS011;49286;44.460;26.114;2023-05-16T03:49:57;5.32;;;3.60;;
63189;SDS011;49286;44.460;26.114;2023-05-16T03:52:22;6.07;;;4.07;;
63189;SDS011;49286;44.460;26.114;2023-05-16T03:54:49;5.22;;;3.33;;
63189;SDS011;49286;44.460;26.114;2023-05-16T03:57:15;4.70;;;3.45;;
63189;SDS011;49286;44.460;26.114;2023-05-16T03:59:40;5.32;;;3.35;;
63189;SDS011;49286;44.460;26.114;2023-05-16T04:02:06;7.07;;;3.97;;
63189;SDS011;49286;44.460;26.114;2023-05-16T04:04:32;7.75;;;4.15;;
63189;SDS011;49286;44.460;26.114;2023-05-16T04:06:57;10.00;;;4.28;;
63189;SDS011;49286;44.460;26.114;2023-05-16T04:09:23;5.78;;;4.05;;
63189;SDS011;49286;44.460;26.114;2023-05-16T04:11:48;7.72;;;4.53;;
63189;SDS011;49286;44.460;26.114;2023-05-16T04:14:14;6.13;;;3.97;;
63189;SDS011;49286;44.460;26.114;2023-05-16T04:16:40;6.30;;;4.75;;
63189;SDS011;49286;44.460;26.114;2023-05-16T04:19:05;10.65;;;4.95;;
63189;SDS011;49286;44.460;26.114;2023-05-16T04:21:31;5.18;;;3.75;;
63189;SDS011;49286;44.460;26.114;2023-05-16T04:23:57;6.07;;;3.33;;
63189;SDS011;49286;44.460;26.114;2023-05-16T04:26:23;6.95;;;4.22;;
63189;SDS011;49286;44.460;26.114;2023-05-16T04:28:49;6.53;;;4.30;;
63189;SDS011;49286;44.460;26.114;2023-05-16T04:31:14;8.43;;;4.00;;
63189;SDS011;49286;44.460;26.114;2023-05-16T04:33:40;6.63;;;4.10;;
63189;SDS011;49286;44.460;26.114;2023-05-16T04:36:06;5.55;;;3.92;;
63189;SDS011;49286;44.460;26.114;2023-05-16T04:38:32;8.10;;;4.10;;
63189;SDS011;49286;44.460;26.114;2023-05-16T04:40:57;8.77;;;4.20;;
63189;SDS011;49286;44.460;26.114;2023-05-16T04:43:23;6.63;;;3.80;;
63189;SDS011;49286;44.460;26.114;2023-05-16T04:45:49;6.72;;;4.22;;
63189;SDS011;49286;44.460;26.114;2023-05-16T04:48:14;7.40;;;4.88;;
63189;SDS011;49286;44.460;26.114;2023-05-16T04:50:40;9.48;;;4.30;;
63189;SDS011;49286;44.460;26.114;2023-05-16T04:53:06;7.32;;;3.95;;
63189;SDS011;49286;44.460;26.114;2023-05-16T04:55:31;16.90;;;3.67;;
63189;SDS011;49286;44.460;26.114;2023-05-16T04:57:57;4.60;;;3.22;;
63189;SDS011;49286;44.460;26.114;2023-05-16T05:00:22;7.97;;;4.90;;
63189;SDS011;49286;44.460;26.114;2023-05-16T05:02:48;6.57;;;4.38;;
63189;SDS011;49286;44.460;26.114;2023-05-16T05:05:13;5.85;;;3.80;;
63189;SDS011;49286;44.460;26.114;2023-05-16T05:07:38;4.90;;;3.60;;
63189;SDS011;49286;44.460;26.114;2023-05-16T05:10:05;5.72;;;3.90;;
63189;SDS011;49286;44.460;26.114;2023-05-16T05:12:31;5.43;;;3.50;;
63189;SDS011;49286;44.460;26.114;2023-05-16T05:14:58;6.45;;;3.30;;
63189;SDS011;49286;44.460;26.114;2023-05-16T05:17:24;5.32;;;4.05;;
63189;SDS011;49286;44.460;26.114;2023-05-16T05:19:49;5.78;;;3.30;;
63189;SDS011;49286;44.460;26.114;2023-05-16T05:22:15;7.57;;;4.05;;
63189;SDS011;49286;44.460;26.114;2023-05-16T05:24:40;6.43;;;3.78;;
63189;SDS011;49286;44.460;26.114;2023-05-16T05:27:06;5.70;;;2.90;;
63189;SDS011;49286;44.460;26.114;2023-05-16T05:29:31;5.95;;;3.47;;
63189;SDS011;49286;44.460;26.114;2023-05-16T05:31:57;5.63;;;3.65;;
63189;SDS011;49286;44.460;26.114;2023-05-16T05:34:22;5.45;;;3.60;;
63189;SDS011;49286;44.460;26.114;2023-05-16T05:36:48;3.63;;;2.55;;
63189;SDS011;49286;44.460;26.114;2023-05-16T05:39:13;6.47;;;3.05;;
63189;SDS011;49286;44.460;26.114;2023-05-16T05:41:39;8.48;;;4.07;;
63189;SDS011;49286;44.460;26.114;2023-05-16T05:44:04;4.55;;;2.83;;
63189;SDS011;49286;44.460;26.114;2023-05-16T05:46:30;5.97;;;2.75;;
63189;SDS011;49286;44.460;26.114;2023-05-16T05:48:57;5.72;;;4.18;;
63189;SDS011;49286;44.460;26.114;2023-05-16T05:51:23;7.68;;;4.25;;
63189;SDS011;49286;44.460;26.114;2023-05-16T05:53:50;7.13;;;3.05;;
63189;SDS011;49286;44.460;26.114;2023-05-16T05:56:17;3.63;;;2.55;;
63189;SDS011;49286;44.460;26.114;2023-05-16T05:58:42;5.05;;;2.10;;
63189;SDS011;49286;44.460;26.114;2023-05-16T06:01:09;4.32;;;2.58;;
63189;SDS011;49286;44.460;26.114;2023-05-16T06:03:35;4.72;;;2.85;;
63189;SDS011;49286;44.460;26.114;2023-05-16T06:06:01;5.93;;;3.55;;
63189;SDS011;49286;44.460;26.114;2023-05-16T06:08:26;26.42;;;2.90;;
63189;SDS011;49286;44.460;26.114;2023-05-16T06:10:51;4.45;;;3.22;;
63189;SDS011;49286;44.460;26.114;2023-05-16T06:13:18;4.10;;;2.25;;
63189;SDS011;49286;44.460;26.114;2023-05-16T06:15:43;4.40;;;2.75;;
63189;SDS011;49286;44.460;26.114;2023-05-16T06:18:08;4.53;;;2.40;;
63189;SDS011;49286;44.460;26.114;2023-05-16T06:20:34;4.35;;;2.40;;
63189;SDS011;49286;44.460;26.114;2023-05-16T06:23:00;4.10;;;2.58;;
63189;SDS011;49286;44.460;26.114;2023-05-16T06:25:25;4.20;;;2.35;;
63189;SDS011;49286;44.460;26.114;2023-05-16T06:27:50;4.95;;;2.80;;
63189;SDS011;49286;44.460;26.114;2023-05-16T06:30:16;4.53;;;2.40;;
63189;SDS011;49286;44.460;26.114;2023-05-16T06:32:42;6.45;;;3.13;;
63189;SDS011;49286;44.460;26.114;2023-05-16T06:35:07;3.83;;;2.13;;
63189;SDS011;49286;44.460;26.114;2023-05-16T06:37:33;9.55;;;3.42;;
63189;SDS011;49286;44.460;26.114;2023-05-16T06:39:59;5.13;;;2.65;;
63189;SDS011;49286;44.460;26.114;2023-05-16T06:42:24;5.63;;;2.78;;
63189;SDS011;49286;44.460;26.114;2023-05-16T06:44:50;6.43;;;3.88;;
63189;SDS011;49286;44.460;26.114;2023-05-16T06:47:15;8.50;;;3.15;;
63189;SDS011;49286;44.460;26.114;2023-05-16T06:49:41;7.53;;;2.83;;
63189;SDS011;49286;44.460;26.114;2023-05-16T06:52:06;5.63;;;3.28;;
63189;SDS011;49286;44.460;26.114;2023-05-16T06:54:32;7.18;;;3.55;;
63189;SDS011;49286;44.460;26.114;2023-05-16T06:56:57;6.05;;;3.63;;
63189;SDS011;49286;44.460;26.114;2023-05-16T06:59:23;4.95;;;2.60;;
63189;SDS011;49286;44.460;26.114;2023-05-16T07:01:48;3.80;;;2.08;;
63189;SDS011;49286;44.460;26.114;2023-05-16T07:04:14;4.63;;;2.45;;
63189;SDS011;49286;44.460;26.114;2023-05-16T07:06:39;6.63;;;4.25;;
63189;SDS011;49286;44.460;26.114;2023-05-16T07:09:05;5.75;;;3.10;;
63189;SDS011;49286;44.460;26.114;2023-05-16T07:11:31;3.08;;;2.13;;
63189;SDS011;49286;44.460;26.114;2023-05-16T07:13:56;4.55;;;2.97;;
63189;SDS011;49286;44.460;26.114;2023-05-16T07:16:22;3.95;;;2.47;;
63189;SDS011;49286;44.460;26.114;2023-05-16T07:18:48;5.32;;;3.80;;
63189;SDS011;49286;44.460;26.114;2023-05-16T07:21:13;3.35;;;2.17;;
63189;SDS011;49286;44.460;26.114;2023-05-16T07:23:39;4.43;;;2.58;;
63189;SDS011;49286;44.460;26.114;2023-05-16T07:26:05;4.60;;;2.65;;
63189;SDS011;49286;44.460;26.114;2023-05-16T07:28:30;2.75;;;1.80;;
63189;SDS011;49286;44.460;26.114;2023-05-16T07:30:55;3.65;;;2.00;;
63189;SDS011;49286;44.460;26.114;2023-05-16T07:33:22;5.80;;;2.80;;
63189;SDS011;49286;44.460;26.114;2023-05-16T07:35:48;4.97;;;2.95;;
63189;SDS011;49286;44.460;26.114;2023-05-16T07:38:14;2.97;;;2.05;;
63189;SDS011;49286;44.460;26.114;2023-05-16T07:40:40;8.75;;;2.25;;
63189;SDS011;49286;44.460;26.114;2023-05-16T07:43:05;4.45;;;1.95;;
63189;SDS011;49286;44.460;26.114;2023-05-16T07:45:30;5.15;;;2.33;;
63189;SDS011;49286;44.460;26.114;2023-05-16T07:47:56;4.03;;;2.22;;
63189;SDS011;49286;44.460;26.114;2023-05-16T07:50:22;4.75;;;2.10;;
63189;SDS011;49286;44.460;26.114;2023-05-16T07:52:47;4.03;;;2.25;;
63189;SDS011;49286;44.460;26.114;2023-05-16T07:55:13;5.45;;;2.30;;
63189;SDS011;49286;44.460;26.114;2023-05-16T07:57:38;6.32;;;2.38;;
63189;SDS011;49286;44.460;26.114;2023-05-16T08:00:04;6.40;;;2.72;;
63189;SDS011;49286;44.460;26.114;2023-05-16T08:02:30;19.95;;;4.40;;
63189;SDS011;49286;44.460;26.114;2023-05-16T08:04:56;6.38;;;5.28;;
63189;SDS011;49286;44.460;26.114;2023-05-16T08:07:22;14.55;;;2.67;;
63189;SDS011;49286;44.460;26.114;2023-05-16T08:09:48;4.43;;;2.72;;
63189;SDS011;49286;44.460;26.114;2023-05-16T08:12:13;3.65;;;1.30;;
63189;SDS011;49286;44.460;26.114;2023-05-16T08:14:39;4.05;;;2.17;;
63189;SDS011;49286;44.460;26.114;2023-05-16T08:17:05;3.50;;;2.00;;
63189;SDS011;49286;44.460;26.114;2023-05-16T08:19:30;3.95;;;2.45;;
63189;SDS011;49286;44.460;26.114;2023-05-16T08:21:57;11.48;;;2.05;;
63189;SDS011;49286;44.460;26.114;2023-05-16T08:24:22;2.80;;;1.88;;
63189;SDS011;49286;44.460;26.114;2023-05-16T08:26:48;2.55;;;1.45;;
63189;SDS011;49286;44.460;26.114;2023-05-16T08:29:14;2.80;;;1.85;;
63189;SDS011;49286;44.460;26.114;2023-05-16T08:31:40;3.40;;;2.20;;
63189;SDS011;49286;44.460;26.114;2023-05-16T08:34:05;2.83;;;1.23;;
63189;SDS011;49286;44.460;26.114;2023-05-16T08:36:31;3.78;;;1.60;;
63189;SDS011;49286;44.460;26.114;2023-05-16T08:39:00;4.80;;;2.20;;
63189;SDS011;49286;44.460;26.114;2023-05-16T08:41:25;3.28;;;1.48;;
63189;SDS011;49286;44.460;26.114;2023-05-16T08:43:51;2.63;;;1.42;;
63189;SDS011;49286;44.460;26.114;2023-05-16T08:46:21;4.05;;;1.85;;
63189;SDS011;49286;44.460;26.114;2023-05-16T08:48:51;3.58;;;1.67;;
63189;SDS011;49286;44.460;26.114;2023-05-16T08:51:18;7.28;;;1.95;;
63189;SDS011;49286;44.460;26.114;2023-05-16T08:53:46;2.22;;;1.23;;
63189;SDS011;49286;44.460;26.114;2023-05-16T08:56:25;4.50;;;1.58;;
63189;SDS011;49286;44.460;26.114;2023-05-16T08:58:51;2.60;;;1.50;;
63189;SDS011;49286;44.460;26.114;2023-05-16T09:01:19;2.35;;;1.27;;
63189;SDS011;49286;44.460;26.114;2023-05-16T09:03:46;5.05;;;2.33;;
63189;SDS011;49286;44.460;26.114;2023-05-16T09:06:12;2.55;;;1.02;;
63189;SDS011;49286;44.460;26.114;2023-05-16T09:08:37;4.15;;;2.15;;
63189;SDS011;49286;44.460;26.114;2023-05-16T09:11:03;2.35;;;1.58;;
63189;SDS011;49286;44.460;26.114;2023-05-16T09:13:28;3.47;;;1.98;;
63189;SDS011;49286;44.460;26.114;2023-05-16T09:16:07;1.98;;;1.23;;
63189;SDS011;49286;44.460;26.114;2023-05-16T09:18:32;3.60;;;2.03;;
63189;SDS011;49286;44.460;26.114;2023-05-16T09:20:59;1.95;;;1.30;;
63189;SDS011;49286;44.460;26.114;2023-05-16T09:23:24;1.83;;;1.20;;
63189;SDS011;49286;44.460;26.114;2023-05-16T09:25:51;2.25;;;1.52;;
63189;SDS011;49286;44.460;26.114;2023-05-16T09:28:17;2.97;;;1.45;;
63189;SDS011;49286;44.460;26.114;2023-05-16T09:30:43;3.67;;;1.55;;
63189;SDS011;49286;44.460;26.114;2023-05-16T09:33:10;3.28;;;2.15;;
63189;SDS011;49286;44.460;26.114;2023-05-16T09:35:36;4.00;;;1.60;;
63189;SDS011;49286;44.460;26.114;2023-05-16T09:38:01;2.63;;;1.23;;
63189;SDS011;49286;44.460;26.114;2023-05-16T09:40:27;2.53;;;1.38;;
63189;SDS011;49286;44.460;26.114;2023-05-16T09:43:01;4.57;;;2.08;;
63189;SDS011;49286;44.460;26.114;2023-05-16T09:45:27;4.00;;;1.70;;
63189;SDS011;49286;44.460;26.114;2023-05-16T09:47:52;2.53;;;1.33;;
63189;SDS011;49286;44.460;26.114;2023-05-16T09:50:18;4.65;;;1.95;;
63189;SDS011;49286;44.460;26.114;2023-05-16T09:52:43;2.33;;;1.58;;
63189;SDS011;49286;44.460;26.114;2023-05-16T09:55:09;3.42;;;1.90;;
63189;SDS011;49286;44.460;26.114;2023-05-16T09:57:38;5.82;;;4.07;;
63189;SDS011;49286;44.460;26.114;2023-05-16T10:00:05;6.20;;;2.47;;
63189;SDS011;49286;44.460;26.114;2023-05-16T10:02:34;4.28;;;1.38;;
63189;SDS011;49286;44.460;26.114;2023-05-16T10:05:01;7.53;;;1.40;;
63189;SDS011;49286;44.460;26.114;2023-05-16T10:07:27;3.63;;;1.60;;
63189;SDS011;49286;44.460;26.114;2023-05-16T10:09:56;2.30;;;1.50;;
63189;SDS011;49286;44.460;26.114;2023-05-16T10:12:23;2.72;;;2.28;;
63189;SDS011;49286;44.460;26.114;2023-05-16T10:14:54;3.00;;;1.35;;
63189;SDS011;49286;44.460;26.114;2023-05-16T10:17:20;2.13;;;1.00;;
63189;SDS011;49286;44.460;26.114;2023-05-16T10:19:46;6.13;;;1.27;;
63189;SDS011;49286;44.460;26.114;2023-05-16T10:22:14;3.85;;;1.35;;
63189;SDS011;49286;44.460;26.114;2023-05-16T10:24:53;1.67;;;1.15;;
63189;SDS011;49286;44.460;26.114;2023-05-16T10:27:40;1.92;;;1.23;;
63189;SDS011;49286;44.460;26.114;2023-05-16T10:30:06;9.73;;;2.47;;
63189;SDS011;49286;44.460;26.114;2023-05-16T10:32:34;3.65;;;2.33;;
63189;SDS011;49286;44.460;26.114;2023-05-16T10:35:01;3.17;;;2.08;;
63189;SDS011;49286;44.460;26.114;2023-05-16T10:37:28;2.15;;;1.33;;
63189;SDS011;49286;44.460;26.114;2023-05-16T10:40:00;1.88;;;1.23;;
63189;SDS011;49286;44.460;26.114;2023-05-16T10:42:30;1.98;;;1.27;;
63189;SDS011;49286;44.460;26.114;2023-05-16T10:45:07;3.30;;;1.88;;
63189;SDS011;49286;44.460;26.114;2023-05-16T10:47:39;2.50;;;1.08;;
63189;SDS011;49286;44.460;26.114;2023-05-16T10:50:05;5.32;;;1.77;;
63189;SDS011;49286;44.460;26.114;2023-05-16T10:52:34;2.58;;;1.50;;
63189;SDS011;49286;44.460;26.114;2023-05-16T10:55:01;5.13;;;1.80;;
63189;SDS011;49286;44.460;26.114;2023-05-16T10:57:28;3.60;;;1.20;;
63189;SDS011;49286;44.460;26.114;2023-05-16T10:59:57;2.47;;;1.20;;
63189;SDS011;49286;44.460;26.114;2023-05-16T11:02:29;2.03;;;1.73;;
63189;SDS011;49286;44.460;26.114;2023-05-16T11:04:59;2.08;;;1.10;;
63189;SDS011;49286;44.460;26.114;2023-05-16T11:07:33;2.60;;;1.58;;
63189;SDS011;49286;44.460;26.114;2023-05-16T11:10:10;3.70;;;1.75;;
63189;SDS011;49286;44.460;26.114;2023-05-16T11:12:43;2.05;;;1.08;;
63189;SDS011;49286;44.460;26.114;2023-05-16T11:20:34;2.30;;;1.13;;
63189;SDS011;49286;44.460;26.114;2023-05-16T11:25:55;2.20;;;1.10;;
63189;SDS011;49286;44.460;26.114;2023-05-16T11:28:25;1.42;;;0.90;;
63189;SDS011;49286;44.460;26.114;2023-05-16T11:30:52;4.32;;;1.20;;
63189;SDS011;49286;44.460;26.114;2023-05-16T11:33:20;4.55;;;1.35;;
63189;SDS011;49286;44.460;26.114;2023-05-16T11:38:45;6.05;;;1.02;;
63189;SDS011;49286;44.460;26.114;2023-05-16T11:41:11;3.13;;;1.33;;
63189;SDS011;49286;44.460;26.114;2023-05-16T11:43:43;2.35;;;1.20;;
63189;SDS011;49286;44.460;26.114;2023-05-16T11:46:10;4.20;;;1.85;;
63189;SDS011;49286;44.460;26.114;2023-05-16T11:48:36;2.53;;;1.45;;
63189;SDS011;49286;44.460;26.114;2023-05-16T11:51:02;1.98;;;1.15;;
63189;SDS011;49286;44.460;26.114;2023-05-16T11:53:27;3.90;;;1.33;;
63189;SDS011;49286;44.460;26.114;2023-05-16T11:55:53;3.28;;;1.70;;
63189;SDS011;49286;44.460;26.114;2023-05-16T11:58:19;7.72;;;2.25;;
63189;SDS011;49286;44.460;26.114;2023-05-16T12:00:49;5.03;;;1.92;;
63189;SDS011;49286;44.460;26.114;2023-05-16T12:03:16;1.25;;;0.85;;
63189;SDS011;49286;44.460;26.114;2023-05-16T12:05:49;2.15;;;0.88;;
63189;SDS011;49286;44.460;26.114;2023-05-16T12:08:21;5.32;;;1.27;;
63189;SDS011;49286;44.460;26.114;2023-05-16T12:10:49;1.95;;;1.20;;
63189;SDS011;49286;44.460;26.114;2023-05-16T12:13:16;3.33;;;1.17;;
63189;SDS011;49286;44.460;26.114;2023-05-16T12:15:44;4.63;;;1.65;;
63189;SDS011;49286;44.460;26.114;2023-05-16T12:18:10;2.22;;;1.38;;
63189;SDS011;49286;44.460;26.114;2023-05-16T12:20:36;2.97;;;2.15;;
63189;SDS011;49286;44.460;26.114;2023-05-16T12:23:02;3.08;;;1.45;;
63189;SDS011;49286;44.460;26.114;2023-05-16T12:25:31;3.80;;;1.30;;
63189;SDS011;49286;44.460;26.114;2023-05-16T12:28:00;1.23;;;0.80;;
63189;SDS011;49286;44.460;26.114;2023-05-16T12:30:27;3.15;;;1.63;;
63189;SDS011;49286;44.460;26.114;2023-05-16T12:35:31;2.28;;;0.95;;
63189;SDS011;49286;44.460;26.114;2023-05-16T12:37:57;5.95;;;1.48;;
63189;SDS011;49286;44.460;26.114;2023-05-16T12:40:27;2.72;;;0.98;;
63189;SDS011;49286;44.460;26.114;2023-05-16T12:42:53;2.55;;;1.05;;
63189;SDS011;49286;44.460;26.114;2023-05-16T12:45:20;2.85;;;1.40;;
63189;SDS011;49286;44.460;26.114;2023-05-16T12:47:47;2.45;;;1.25;;
63189;SDS011;49286;44.460;26.114;2023-05-16T12:50:13;3.10;;;1.52;;
63189;SDS011;49286;44.460;26.114;2023-05-16T12:52:48;2.22;;;1.13;;
63189;SDS011;49286;44.460;26.114;2023-05-16T12:55:15;2.60;;;1.15;;
63189;SDS011;49286;44.460;26.114;2023-05-16T12:57:45;3.42;;;1.15;;
63189;SDS011;49286;44.460;26.114;2023-05-16T13:00:12;5.82;;;1.30;;
63189;SDS011;49286;44.460;26.114;2023-05-16T13:02:38;2.08;;;1.10;;
63189;SDS011;49286;44.460;26.114;2023-05-16T13:05:04;3.75;;;1.67;;
63189;SDS011;49286;44.460;26.114;2023-05-16T13:07:34;2.67;;;1.52;;
63189;SDS011;49286;44.460;26.114;2023-05-16T13:10:00;2.45;;;1.00;;
63189;SDS011;49286;44.460;26.114;2023-05-16T13:12:26;2.10;;;1.08;;
63189;SDS011;49286;44.460;26.114;2023-05-16T13:14:52;3.38;;;1.00;;
63189;SDS011;49286;44.460;26.114;2023-05-16T13:17:18;2.28;;;1.08;;
63189;SDS011;49286;44.460;26.114;2023-05-16T13:19:43;2.03;;;1.38;;
63189;SDS011;49286;44.460;26.114;2023-05-16T13:22:09;1.95;;;1.00;;
63189;SDS011;49286;44.460;26.114;2023-05-16T13:24:34;8.10;;;1.27;;
63189;SDS011;49286;44.460;26.114;2023-05-16T13:27:00;5.22;;;1.70;;
63189;SDS011;49286;44.460;26.114;2023-05-16T13:29:25;6.18;;;1.92;;
63189;SDS011;49286;44.460;26.114;2023-05-16T13:31:51;3.72;;;1.70;;
63189;SDS011;49286;44.460;26.114;2023-05-16T13:34:16;2.17;;;1.23;;
63189;SDS011;49286;44.460;26.114;2023-05-16T13:36:42;2.88;;;1.52;;
63189;SDS011;49286;44.460;26.114;2023-05-16T13:39:07;4.93;;;3.13;;
63189;SDS011;49286;44.460;26.114;2023-05-16T13:41:33;2.13;;;0.65;;
63189;SDS011;49286;44.460;26.114;2023-05-16T13:44:02;3.17;;;2.33;;
63189;SDS011;49286;44.460;26.114;2023-05-16T13:46:27;1.63;;;0.98;;
63189;SDS011;49286;44.460;26.114;2023-05-16T13:48:53;7.43;;;2.03;;
63189;SDS011;49286;44.460;26.114;2023-05-16T13:51:18;5.75;;;1.42;;
63189;SDS011;49286;44.460;26.114;2023-05-16T13:53:44;2.50;;;1.10;;
63189;SDS011;49286;44.460;26.114;2023-05-16T13:56:09;3.75;;;1.50;;
63189;SDS011;49286;44.460;26.114;2023-05-16T13:58:36;8.35;;;1.45;;
63189;SDS011;49286;44.460;26.114;2023-05-16T14:01:02;5.82;;;1.27;;
63189;SDS011;49286;44.460;26.114;2023-05-16T14:03:27;4.95;;;1.52;;
63189;SDS011;49286;44.460;26.114;2023-05-16T14:05:53;3.50;;;1.70;;
63189;SDS011;49286;44.460;26.114;2023-05-16T14:08:18;2.00;;;1.42;;
63189;SDS011;49286;44.460;26.114;2023-05-16T14:10:44;6.22;;;1.77;;
63189;SDS011;49286;44.460;26.114;2023-05-16T14:13:09;3.95;;;1.77;;
63189;SDS011;49286;44.460;26.114;2023-05-16T14:15:35;1.90;;;0.88;;
63189;SDS011;49286;44.460;26.114;2023-05-16T14:18:00;5.32;;;1.75;;
63189;SDS011;49286;44.460;26.114;2023-05-16T14:20:28;2.47;;;1.48;;
63189;SDS011;49286;44.460;26.114;2023-05-16T14:22:53;2.78;;;1.30;;
63189;SDS011;49286;44.460;26.114;2023-05-16T14:25:18;1.02;;;0.60;;
63189;SDS011;49286;44.460;26.114;2023-05-16T14:27:44;4.72;;;1.38;;
63189;SDS011;49286;44.460;26.114;2023-05-16T14:30:10;5.60;;;1.48;;
63189;SDS011;49286;44.460;26.114;2023-05-16T14:32:35;2.58;;;1.05;;
63189;SDS011;49286;44.460;26.114;2023-05-16T14:35:01;3.05;;;1.25;;
63189;SDS011;49286;44.460;26.114;2023-05-16T14:37:29;2.17;;;1.30;;
63189;SDS011;49286;44.460;26.114;2023-05-16T14:39:55;5.50;;;2.25;;
63189;SDS011;49286;44.460;26.114;2023-05-16T14:42:21;2.47;;;1.40;;
63189;SDS011;49286;44.460;26.114;2023-05-16T14:44:47;2.50;;;1.40;;
63189;SDS011;49286;44.460;26.114;2023-05-16T14:47:12;3.13;;;1.70;;
63189;SDS011;49286;44.460;26.114;2023-05-16T14:49:38;2.05;;;1.35;;
63189;SDS011;49286;44.460;26.114;2023-05-16T14:52:04;4.35;;;3.00;;
63189;SDS011;49286;44.460;26.114;2023-05-16T14:54:30;5.95;;;1.13;;